sensor_id;sensor_type;location;lat;lon;timestamp;pressure;altitude;pressure_sealevel;temperature;humidity
19672;BME280;9983;51.114;13.788;2023-05-14T00:04:21;99738.16;;;12.72;100.00
19672;BME280;9983;51.114;13.788;2023-05-14T00:09:21;99749.50;;;12.82;100.00
19672;BME280;9983;51.114;13.788;2023-05-14T00:14:21;99738.34;;;12.10;100.00
19672;BME280;9983;51.114;13.788;2023-05-14T00:19:21;99731.50;;;12.68;100.00
19672;BME280;9983;51.114;13.788;2023-05-14T00:24:22;99727.81;;;12.99;100.00
19672;BME280;9983;51.114;13.788;2023-05-14T00:29:22;99716.66;;;12.72;100.00
19672;BME280;9983;51.114;13.788;2023-05-14T00:34:23;99706.03;;;12.56;100.00
19672;BME280;9983;51.114;13.788;2023-05-14T00:39:23;99701.13;;;13.12;100.00
19672;BME280;9983;51.114;13.788;2023-05-14T00:44:23;99705.31;;;13.14;100.00
19672;BME280;9983;51.114;13.788;2023-05-14T00:49:24;99703.34;;;13.23;100.00
19672;BME280;9983;51.114;13.788;2023-05-14T00:54:26;99700.56;;;13.31;100.00
19672;BME280;9983;51.114;13.788;2023-05-14T00:59:27;99698.25;;;13.28;100.00
19672;BME280;9983;51.114;13.788;2023-05-14T01:04:27;99695.72;;;13.41;100.00
19672;BME280;9983;51.114;13.788;2023-05-14T01:20:04;99698.13;;;12.77;100.00
19672;BME280;9983;51.114;13.788;2023-05-14T01:25:05;99682.97;;;13.14;100.00
19672;BME280;9983;51.114;13.788;2023-05-14T01:35:16;99681.13;;;12.77;100.00
19672;BME280;9983;51.114;13.788;2023-05-14T01:40:17;99683.00;;;12.39;100.00
19672;BME280;9983;51.114;13.788;2023-05-14T01:45:21;99675.00;;;12.98;100.00
19672;BME280;9983;51.114;13.788;2023-05-14T01:50:22;99680.41;;;12.83;100.00
19672;BME280;9983;51.114;13.788;2023-05-14T01:55:23;99678.38;;;12.10;100.00
19672;BME280;9983;51.114;13.788;2023-05-14T02:00:24;99687.44;;;11.86;100.00
19672;BME280;9983;51.114;13.788;2023-05-14T02:05:25;99686.78;;;12.30;100.00
19672;BME280;9983;51.114;13.788;2023-05-14T02:10:25;99684.28;;;12.80;100.00
19672;BME280;9983;51.114;13.788;2023-05-14T02:15:25;99683.66;;;12.78;100.00
19672;BME280;9983;51.114;13.788;2023-05-14T02:20:25;99678.53;;;12.98;100.00
19672;BME280;9983;51.114;13.788;2023-05-14T02:25:26;99676.94;;;11.99;100.00
19672;BME280;9983;51.114;13.788;2023-05-14T02:30:26;99681.78;;;11.73;100.00
19672;BME280;9983;51.114;13.788;2023-05-14T02:35:26;99678.97;;;11.97;100.00
19672;BME280;9983;51.114;13.788;2023-05-14T02:40:27;99673.97;;;12.32;100.00
19672;BME280;9983;51.114;13.788;2023-05-14T02:45:27;99676.09;;;12.59;100.00
19672;BME280;9983;51.114;13.788;2023-05-14T02:50:27;99672.63;;;12.36;100.00
19672;BME280;9983;51.114;13.788;2023-05-14T02:55:27;99674.19;;;12.07;100.00
19672;BME280;9983;51.114;13.788;2023-05-14T03:00:29;99664.53;;;12.21;100.00
19672;BME280;9983;51.114;13.788;2023-05-14T03:05:29;99665.66;;;11.73;100.00
19672;BME280;9983;51.114;13.788;2023-05-14T03:10:29;99660.69;;;12.15;100.00
19672;BME280;9983;51.114;13.788;2023-05-14T03:15:31;99675.25;;;11.98;100.00
19672;BME280;9983;51.114;13.788;2023-05-14T03:20:32;99658.31;;;12.21;100.00
19672;BME280;9983;51.114;13.788;2023-05-14T03:25:32;99665.84;;;11.80;100.00
19672;BME280;9983;51.114;13.788;2023-05-14T03:30:33;99669.66;;;11.85;100.00
19672;BME280;9983;51.114;13.788;2023-05-14T03:35:33;99660.63;;;11.78;100.00
19672;BME280;9983;51.114;13.788;2023-05-14T03:40:34;99665.97;;;11.86;100.00
19672;BME280;9983;51.114;13.788;2023-05-14T03:45:34;99645.88;;;11.12;100.00
19672;BME280;9983;51.114;13.788;2023-05-14T03:50:34;99650.44;;;11.34;100.00
19672;BME280;9983;51.114;13.788;2023-05-14T03:55:34;99645.41;;;11.31;100.00
19672;BME280;9983;51.114;13.788;2023-05-14T04:00:35;99639.56;;;10.89;100.00
19672;BME280;9983;51.114;13.788;2023-05-14T04:05:35;99634.56;;;10.86;100.00
19672;BME280;9983;51.114;13.788;2023-05-14T04:10:36;99632.63;;;11.11;100.00
19672;BME280;9983;51.114;13.788;2023-05-14T04:15:36;99640.25;;;11.22;100.00
19672;BME280;9983;51.114;13.788;2023-05-14T04:20:38;99636.34;;;11.32;100.00
19672;BME280;9983;51.114;13.788;2023-05-14T04:25:39;99637.56;;;10.91;100.00
19672;BME280;9983;51.114;13.788;2023-05-14T04:30:39;99638.19;;;11.01;100.00
19672;BME280;9983;51.114;13.788;2023-05-14T04:35:40;99636.09;;;11.19;100.00
19672;BME280;9983;51.114;13.788;2023-05-14T04:40:40;99625.25;;;11.13;100.00
19672;BME280;9983;51.114;13.788;2023-05-14T04:45:40;99622.03;;;11.79;100.00
19672;BME280;9983;51.114;13.788;2023-05-14T04:50:40;99623.06;;;11.70;100.00
19672;BME280;9983;51.114;13.788;2023-05-14T04:55:41;99626.25;;;11.43;100.00
19672;BME280;9983;51.114;13.788;2023-05-14T05:00:41;99619.94;;;12.27;100.00
19672;BME280;9983;51.114;13.788;2023-05-14T05:05:41;99624.13;;;12.06;100.00
19672;BME280;9983;51.114;13.788;2023-05-14T05:10:41;99615.34;;;12.50;100.00
19672;BME280;9983;51.114;13.788;2023-05-14T05:15:42;99618.59;;;12.75;100.00
19672;BME280;9983;51.114;13.788;2023-05-14T05:20:42;99610.00;;;12.79;100.00
19672;BME280;9983;51.114;13.788;2023-05-14T05:25:43;99606.34;;;13.16;100.00
19672;BME280;9983;51.114;13.788;2023-05-14T05:30:43;99611.09;;;13.50;100.00
19672;BME280;9983;51.114;13.788;2023-05-14T05:35:46;99607.19;;;13.89;100.00
19672;BME280;9983;51.114;13.788;2023-05-14T05:40:47;99602.78;;;14.09;100.00
19672;BME280;9983;51.114;13.788;2023-05-14T05:45:47;99600.56;;;14.40;100.00
19672;BME280;9983;51.114;13.788;2023-05-14T05:50:48;99591.25;;;14.71;100.00
19672;BME280;9983;51.114;13.788;2023-05-14T05:55:48;99598.44;;;14.98;97.98
19672;BME280;9983;51.114;13.788;2023-05-14T06:00:50;99588.97;;;15.15;97.30
19672;BME280;9983;51.114;13.788;2023-05-14T06:05:50;99588.19;;;15.28;93.05
19672;BME280;9983;51.114;13.788;2023-05-14T06:10:51;99594.91;;;15.52;91.25
19672;BME280;9983;51.114;13.788;2023-05-14T06:15:51;99600.81;;;15.75;89.50
19672;BME280;9983;51.114;13.788;2023-05-14T06:20:52;99589.19;;;15.94;88.80
19672;BME280;9983;51.114;13.788;2023-05-14T06:25:52;99580.69;;;16.11;86.11
19672;BME280;9983;51.114;13.788;2023-05-14T06:30:52;99581.28;;;16.26;85.37
19672;BME280;9983;51.114;13.788;2023-05-14T06:35:53;99583.97;;;16.52;84.89
19672;BME280;9983;51.114;13.788;2023-05-14T06:40:53;99582.94;;;16.66;83.65
19672;BME280;9983;51.114;13.788;2023-05-14T06:45:53;99582.47;;;16.83;82.64
19672;BME280;9983;51.114;13.788;2023-05-14T06:50:54;99581.59;;;17.02;78.73
19672;BME280;9983;51.114;13.788;2023-05-14T06:55:54;99580.06;;;17.19;79.68
19672;BME280;9983;51.114;13.788;2023-05-14T07:00:55;99579.41;;;17.30;80.73
19672;BME280;9983;51.114;13.788;2023-05-14T07:05:55;99568.13;;;17.33;74.75
19672;BME280;9983;51.114;13.788;2023-05-14T07:10:55;99565.16;;;17.41;75.35
19672;BME280;9983;51.114;13.788;2023-05-14T07:15:56;99553.47;;;17.41;71.33
19672;BME280;9983;51.114;13.788;2023-05-14T07:20:56;99554.19;;;17.68;71.50
19672;BME280;9983;51.114;13.788;2023-05-14T07:25:56;99547.03;;;17.80;69.56
19672;BME280;9983;51.114;13.788;2023-05-14T07:30:57;99542.66;;;18.04;67.99
19672;BME280;9983;51.114;13.788;2023-05-14T07:35:57;99545.28;;;18.35;68.36
19672;BME280;9983;51.114;13.788;2023-05-14T07:40:57;99546.47;;;18.46;66.63
19672;BME280;9983;51.114;13.788;2023-05-14T07:45:58;99533.81;;;18.58;66.09
19672;BME280;9983;51.114;13.788;2023-05-14T07:50:58;99537.63;;;18.50;66.60
19672;BME280;9983;51.114;13.788;2023-05-14T07:55:58;99528.03;;;18.91;64.62
19672;BME280;9983;51.114;13.788;2023-05-14T08:00:59;99526.28;;;18.97;62.34
19672;BME280;9983;51.114;13.788;2023-05-14T08:06:00;99529.88;;;19.09;59.03
19672;BME280;9983;51.114;13.788;2023-05-14T08:11:02;99533.81;;;18.94;57.92
19672;BME280;9983;51.114;13.788;2023-05-14T08:16:02;99534.66;;;18.95;58.51
19672;BME280;9983;51.114;13.788;2023-05-14T08:21:03;99527.63;;;19.24;57.73
19672;BME280;9983;51.114;13.788;2023-05-14T08:26:03;99533.53;;;19.51;56.67
19672;BME280;9983;51.114;13.788;2023-05-14T08:31:03;99524.63;;;19.74;55.51
19672;BME280;9983;51.114;13.788;2023-05-14T08:36:04;99522.41;;;19.94;56.03
19672;BME280;9983;51.114;13.788;2023-05-14T08:41:06;99527.97;;;20.11;55.23
19672;BME280;9983;51.114;13.788;2023-05-14T08:46:09;99517.66;;;20.01;54.35
19672;BME280;9983;51.114;13.788;2023-05-14T08:51:12;99524.56;;;20.15;55.62
19672;BME280;9983;51.114;13.788;2023-05-14T08:56:13;99516.06;;;20.23;54.63
19672;BME280;9983;51.114;13.788;2023-05-14T09:01:15;99514.16;;;20.35;53.90
19672;BME280;9983;51.114;13.788;2023-05-14T09:06:16;99504.91;;;19.90;53.05
19672;BME280;9983;51.114;13.788;2023-05-14T09:11:16;99510.84;;;20.33;54.20
19672;BME280;9983;51.114;13.788;2023-05-14T09:16:17;99504.34;;;20.46;50.27
19672;BME280;9983;51.114;13.788;2023-05-14T09:21:19;99511.28;;;20.77;48.77
19672;BME280;9983;51.114;13.788;2023-05-14T09:26:22;99500.06;;;21.02;47.81
19672;BME280;9983;51.114;13.788;2023-05-14T09:31:23;99503.25;;;21.10;47.32
19672;BME280;9983;51.114;13.788;2023-05-14T09:36:23;99498.00;;;21.32;47.92
19672;BME280;9983;51.114;13.788;2023-05-14T09:41:26;99491.09;;;21.58;45.85
19672;BME280;9983;51.114;13.788;2023-05-14T09:46:26;99484.00;;;21.29;45.72
19672;BME280;9983;51.114;13.788;2023-05-14T09:51:29;99486.06;;;21.10;47.92
19672;BME280;9983;51.114;13.788;2023-05-14T09:56:32;99480.50;;;21.62;45.24
19672;BME280;9983;51.114;13.788;2023-05-14T10:01:32;99465.31;;;21.49;44.83
19672;BME280;9983;51.114;13.788;2023-05-14T10:06:37;99460.03;;;21.59;44.61
19672;BME280;9983;51.114;13.788;2023-05-14T10:11:42;99450.19;;;21.58;47.65
19672;BME280;9983;51.114;13.788;2023-05-14T10:16:46;99449.59;;;21.89;45.50
19672;BME280;9983;51.114;13.788;2023-05-14T10:21:55;99443.31;;;21.72;46.56
19672;BME280;9983;51.114;13.788;2023-05-14T10:26:55;99427.78;;;21.56;46.95
19672;BME280;9983;51.114;13.788;2023-05-14T10:31:57;99427.78;;;21.56;47.22
19672;BME280;9983;51.114;13.788;2023-05-14T10:37:01;99423.41;;;22.27;44.06
19672;BME280;9983;51.114;13.788;2023-05-14T10:42:03;99416.97;;;22.33;42.80
19672;BME280;9983;51.114;13.788;2023-05-14T10:47:04;99414.88;;;22.02;43.52
19672;BME280;9983;51.114;13.788;2023-05-14T10:52:07;99411.88;;;21.86;46.01
19672;BME280;9983;51.114;13.788;2023-05-14T10:57:10;99414.00;;;22.18;45.06
19672;BME280;9983;51.114;13.788;2023-05-14T11:02:42;99398.91;;;22.54;43.24
19672;BME280;9983;51.114;13.788;2023-05-14T11:07:46;99401.22;;;24.01;40.89
19672;BME280;9983;51.114;13.788;2023-05-14T11:12:48;99403.91;;;25.11;38.20
19672;BME280;9983;51.114;13.788;2023-05-14T11:17:50;99391.84;;;25.07;38.44
19672;BME280;9983;51.114;13.788;2023-05-14T11:22:50;99381.88;;;26.42;35.81
19672;BME280;9983;51.114;13.788;2023-05-14T11:27:51;99391.72;;;24.76;37.41
19672;BME280;9983;51.114;13.788;2023-05-14T11:32:55;99386.38;;;25.47;36.92
19672;BME280;9983;51.114;13.788;2023-05-14T11:37:55;99368.22;;;26.07;36.13
19672;BME280;9983;51.114;13.788;2023-05-14T11:42:55;99364.22;;;27.47;35.00
19672;BME280;9983;51.114;13.788;2023-05-14T11:47:56;99369.75;;;28.05;33.31
19672;BME280;9983;51.114;13.788;2023-05-14T11:52:56;99371.41;;;28.06;33.50
19672;BME280;9983;51.114;13.788;2023-05-14T11:57:56;99363.88;;;28.16;32.96
19672;BME280;9983;51.114;13.788;2023-05-14T12:02:56;99355.75;;;27.72;32.67
19672;BME280;9983;51.114;13.788;2023-05-14T12:07:57;99352.81;;;27.64;33.26
19672;BME280;9983;51.114;13.788;2023-05-14T12:12:57;99346.03;;;25.78;35.46
19672;BME280;9983;51.114;13.788;2023-05-14T12:17:57;99338.41;;;26.50;34.04
19672;BME280;9983;51.114;13.788;2023-05-14T12:22:57;99337.44;;;26.15;34.04
19672;BME280;9983;51.114;13.788;2023-05-14T12:27:58;99336.94;;;25.98;35.15
19672;BME280;9983;51.114;13.788;2023-05-14T12:32:58;99325.81;;;26.43;34.39
19672;BME280;9983;51.114;13.788;2023-05-14T12:37:58;99323.81;;;25.39;35.21
19672;BME280;9983;51.114;13.788;2023-05-14T12:42:58;99316.09;;;25.82;34.40
19672;BME280;9983;51.114;13.788;2023-05-14T12:47:59;99319.28;;;26.14;35.11
19672;BME280;9983;51.114;13.788;2023-05-14T12:52:59;99305.31;;;26.70;34.58
19672;BME280;9983;51.114;13.788;2023-05-14T12:57:59;99294.22;;;26.85;34.09
19672;BME280;9983;51.114;13.788;2023-05-14T13:02:59;99297.44;;;26.97;33.89
19672;BME280;9983;51.114;13.788;2023-05-14T13:08:00;99285.91;;;26.95;34.12
19672;BME280;9983;51.114;13.788;2023-05-14T13:13:02;99296.53;;;26.68;34.93
19672;BME280;9983;51.114;13.788;2023-05-14T13:18:03;99301.31;;;25.32;37.35
19672;BME280;9983;51.114;13.788;2023-05-14T13:23:03;99304.06;;;25.07;37.95
19672;BME280;9983;51.114;13.788;2023-05-14T13:28:04;99291.41;;;24.85;38.92
19672;BME280;9983;51.114;13.788;2023-05-14T13:33:04;99295.75;;;24.71;38.15
19672;BME280;9983;51.114;13.788;2023-05-14T13:38:04;99293.50;;;24.43;39.44
19672;BME280;9983;51.114;13.788;2023-05-14T13:43:05;99285.63;;;24.04;40.98
19672;BME280;9983;51.114;13.788;2023-05-14T13:48:05;99286.72;;;23.98;40.15
19672;BME280;9983;51.114;13.788;2023-05-14T13:53:05;99284.16;;;23.39;41.74
19672;BME280;9983;51.114;13.788;2023-05-14T13:58:05;99275.91;;;23.34;41.63
19672;BME280;9983;51.114;13.788;2023-05-14T14:03:06;99265.41;;;23.21;41.87
19672;BME280;9983;51.114;13.788;2023-05-14T14:08:07;99267.63;;;26.26;37.51
19672;BME280;9983;51.114;13.788;2023-05-14T14:13:08;99279.38;;;25.22;38.09
19672;BME280;9983;51.114;13.788;2023-05-14T14:18:08;99256.72;;;24.24;38.93
19672;BME280;9983;51.114;13.788;2023-05-14T14:23:08;99240.16;;;25.26;36.75
19672;BME280;9983;51.114;13.788;2023-05-14T14:28:08;99246.97;;;24.88;39.30
19672;BME280;9983;51.114;13.788;2023-05-14T14:33:09;99237.47;;;24.13;40.83
19672;BME280;9983;51.114;13.788;2023-05-14T14:38:10;99237.00;;;24.22;41.53
19672;BME280;9983;51.114;13.788;2023-05-14T14:43:10;99234.47;;;23.16;42.69
19672;BME280;9983;51.114;13.788;2023-05-14T14:48:28;99231.00;;;23.30;42.99
19672;BME280;9983;51.114;13.788;2023-05-14T14:53:31;99227.00;;;23.01;43.36
19672;BME280;9983;51.114;13.788;2023-05-14T14:58:31;99226.34;;;22.89;43.97
19672;BME280;9983;51.114;13.788;2023-05-14T15:03:31;99219.56;;;22.69;44.81
19672;BME280;9983;51.114;13.788;2023-05-14T15:08:32;99215.75;;;22.70;44.84
19672;BME280;9983;51.114;13.788;2023-05-14T15:13:34;99211.84;;;22.61;45.17
19672;BME280;9983;51.114;13.788;2023-05-14T15:18:34;99216.41;;;22.24;44.24
19672;BME280;9983;51.114;13.788;2023-05-14T15:23:34;99221.34;;;22.54;43.23
19672;BME280;9983;51.114;13.788;2023-05-14T15:28:35;99221.94;;;22.61;42.86
19672;BME280;9983;51.114;13.788;2023-05-14T15:33:35;99208.47;;;22.49;42.53
19672;BME280;9983;51.114;13.788;2023-05-14T15:38:35;99210.41;;;22.54;42.46
19672;BME280;9983;51.114;13.788;2023-05-14T15:43:35;99204.56;;;22.40;42.25
19672;BME280;9983;51.114;13.788;2023-05-14T15:48:36;99201.25;;;22.38;42.47
19672;BME280;9983;51.114;13.788;2023-05-14T15:53:36;99194.13;;;22.37;42.36
19672;BME280;9983;51.114;13.788;2023-05-14T15:58:36;99188.66;;;22.37;42.64
19672;BME280;9983;51.114;13.788;2023-05-14T16:03:36;99201.28;;;22.43;43.09
19672;BME280;9983;51.114;13.788;2023-05-14T16:08:37;99193.53;;;22.30;42.89
19672;BME280;9983;51.114;13.788;2023-05-14T16:13:37;99198.88;;;22.20;43.92
19672;BME280;9983;51.114;13.788;2023-05-14T16:18:39;99187.63;;;22.43;43.06
19672;BME280;9983;51.114;13.788;2023-05-14T16:23:41;99192.78;;;22.13;43.42
19672;BME280;9983;51.114;13.788;2023-05-14T16:28:41;99197.94;;;22.36;43.95
19672;BME280;9983;51.114;13.788;2023-05-14T16:33:42;99191.75;;;22.19;45.00
19672;BME280;9983;51.114;13.788;2023-05-14T16:38:42;99202.19;;;21.78;45.71
19672;BME280;9983;51.114;13.788;2023-05-14T16:43:43;99199.84;;;21.65;45.57
19672;BME280;9983;51.114;13.788;2023-05-14T16:48:44;99204.47;;;21.26;46.76
19672;BME280;9983;51.114;13.788;2023-05-14T16:53:44;99205.47;;;21.37;46.31
19672;BME280;9983;51.114;13.788;2023-05-14T16:58:45;99194.41;;;21.27;46.56
19672;BME280;9983;51.114;13.788;2023-05-14T17:03:45;99200.03;;;21.03;47.80
19672;BME280;9983;51.114;13.788;2023-05-14T17:08:45;99196.56;;;21.25;47.00
19672;BME280;9983;51.114;13.788;2023-05-14T17:13:46;99187.34;;;20.92;48.69
19672;BME280;9983;51.114;13.788;2023-05-14T17:18:46;99186.06;;;21.16;48.21
19672;BME280;9983;51.114;13.788;2023-05-14T17:23:47;99185.69;;;20.91;49.19
19672;BME280;9983;51.114;13.788;2023-05-14T17:28:47;99188.28;;;21.03;48.18
19672;BME280;9983;51.114;13.788;2023-05-14T17:33:48;99189.47;;;20.90;49.04
19672;BME280;9983;51.114;13.788;2023-05-14T17:38:48;99195.22;;;20.94;48.72
19672;BME280;9983;51.114;13.788;2023-05-14T17:43:48;99186.81;;;20.95;48.48
19672;BME280;9983;51.114;13.788;2023-05-14T17:48:51;99187.16;;;20.20;51.24
19672;BME280;9983;51.114;13.788;2023-05-14T17:53:51;99188.13;;;20.76;50.23
19672;BME280;9983;51.114;13.788;2023-05-14T17:58:52;99176.75;;;20.45;51.15
19672;BME280;9983;51.114;13.788;2023-05-14T18:03:52;99185.75;;;20.63;50.58
19672;BME280;9983;51.114;13.788;2023-05-14T18:08:52;99188.22;;;20.19;51.33
19672;BME280;9983;51.114;13.788;2023-05-14T18:13:52;99190.53;;;20.27;51.93
19672;BME280;9983;51.114;13.788;2023-05-14T18:18:53;99198.38;;;19.95;52.70
19672;BME280;9983;51.114;13.788;2023-05-14T18:23:55;99191.50;;;19.64;54.98
19672;BME280;9983;51.114;13.788;2023-05-14T18:28:56;99186.88;;;20.05;52.05
19672;BME280;9983;51.114;13.788;2023-05-14T18:33:56;99191.22;;;19.78;53.78
19672;BME280;9983;51.114;13.788;2023-05-14T18:38:57;99195.59;;;19.79;52.93
19672;BME280;9983;51.114;13.788;2023-05-14T18:43:57;99197.41;;;19.61;54.28
19672;BME280;9983;51.114;13.788;2023-05-14T18:48:57;99198.63;;;19.19;55.26
19672;BME280;9983;51.114;13.788;2023-05-14T18:53:57;99205.94;;;19.18;56.07
19672;BME280;9983;51.114;13.788;2023-05-14T18:58:58;99205.00;;;19.13;56.72
19672;BME280;9983;51.114;13.788;2023-05-14T19:03:58;99207.72;;;19.01;57.61
19672;BME280;9983;51.114;13.788;2023-05-14T19:08:58;99211.97;;;18.44;58.74
19672;BME280;9983;51.114;13.788;2023-05-14T19:13:59;99219.13;;;18.68;58.23
19672;BME280;9983;51.114;13.788;2023-05-14T19:19:00;99217.50;;;18.37;59.29
19672;BME280;9983;51.114;13.788;2023-05-14T19:24:00;99213.47;;;17.98;62.15
19672;BME280;9983;51.114;13.788;2023-05-14T19:29:00;99223.13;;;17.76;62.88
19672;BME280;9983;51.114;13.788;2023-05-14T19:34:00;99223.59;;;17.73;63.03
19672;BME280;9983;51.114;13.788;2023-05-14T19:39:01;99217.81;;;17.99;61.95
19672;BME280;9983;51.114;13.788;2023-05-14T19:44:01;99225.81;;;16.96;67.60
19672;BME280;9983;51.114;13.788;2023-05-14T19:49:01;99210.84;;;16.94;67.80
19672;BME280;9983;51.114;13.788;2023-05-14T19:54:01;99208.84;;;16.83;68.14
19672;BME280;9983;51.114;13.788;2023-05-14T19:59:02;99204.44;;;15.94;73.75
19672;BME280;9983;51.114;13.788;2023-05-14T20:04:02;99199.66;;;15.96;73.89
19672;BME280;9983;51.114;13.788;2023-05-14T20:09:02;99197.25;;;16.44;72.04
19672;BME280;9983;51.114;13.788;2023-05-14T20:14:04;99185.03;;;16.66;70.13
19672;BME280;9983;51.114;13.788;2023-05-14T20:19:05;99183.72;;;16.76;69.82
19672;BME280;9983;51.114;13.788;2023-05-14T20:24:05;99181.91;;;16.69;69.54
19672;BME280;9983;51.114;13.788;2023-05-14T20:29:05;99175.25;;;16.65;70.09
19672;BME280;9983;51.114;13.788;2023-05-14T20:34:05;99174.91;;;16.55;71.23
19672;BME280;9983;51.114;13.788;2023-05-14T20:39:06;99166.59;;;16.57;70.73
19672;BME280;9983;51.114;13.788;2023-05-14T20:44:07;99157.41;;;16.02;75.44
19672;BME280;9983;51.114;13.788;2023-05-14T20:49:07;99161.78;;;15.51;78.51
19672;BME280;9983;51.114;13.788;2023-05-14T20:54:08;99163.09;;;15.36;80.35
19672;BME280;9983;51.114;13.788;2023-05-14T20:59:08;99154.44;;;15.14;82.04
19672;BME280;9983;51.114;13.788;2023-05-14T21:04:08;99147.03;;;14.70;84.72
19672;BME280;9983;51.114;13.788;2023-05-14T21:09:08;99142.44;;;14.90;84.36
19672;BME280;9983;51.114;13.788;2023-05-14T21:14:09;99141.63;;;14.30;87.76
19672;BME280;9983;51.114;13.788;2023-05-14T21:19:10;99139.56;;;14.59;86.76
19672;BME280;9983;51.114;13.788;2023-05-14T21:24:10;99133.13;;;14.73;85.53
19672;BME280;9983;51.114;13.788;2023-05-14T21:29:10;99131.13;;;15.26;81.82
19672;BME280;9983;51.114;13.788;2023-05-14T21:34:10;99132.13;;;14.48;86.82
19672;BME280;9983;51.114;13.788;2023-05-14T21:39:11;99125.00;;;14.07;90.38
19672;BME280;9983;51.114;13.788;2023-05-14T21:44:11;99117.78;;;14.14;89.85
19672;BME280;9983;51.114;13.788;2023-05-14T21:49:11;99117.38;;;14.43;87.88
19672;BME280;9983;51.114;13.788;2023-05-14T21:54:12;99097.22;;;14.00;89.78
19672;BME280;9983;51.114;13.788;2023-05-14T21:59:13;99099.72;;;14.61;86.05
19672;BME280;9983;51.114;13.788;2023-05-14T22:04:13;99094.34;;;14.41;87.15
19672;BME280;9983;51.114;13.788;2023-05-14T22:09:13;99087.66;;;13.78;92.04
19672;BME280;9983;51.114;13.788;2023-05-14T22:14:13;99081.28;;;13.18;96.15
19672;BME280;9983;51.114;13.788;2023-05-14T22:19:17;99083.03;;;13.45;94.69
19672;BME280;9983;51.114;13.788;2023-05-14T22:24:17;99072.56;;;13.16;98.00
19672;BME280;9983;51.114;13.788;2023-05-14T22:29:17;99076.66;;;13.12;98.88
19672;BME280;9983;51.114;13.788;2023-05-14T22:34:18;99066.97;;;14.11;91.30
19672;BME280;9983;51.114;13.788;2023-05-14T22:39:18;99082.22;;;13.64;94.42
19672;BME280;9983;51.114;13.788;2023-05-14T22:44:18;99060.66;;;13.51;95.29
19672;BME280;9983;51.114;13.788;2023-05-14T22:49:18;99059.47;;;14.06;91.13
19672;BME280;9983;51.114;13.788;2023-05-14T22:54:19;99057.63;;;14.20;91.73
19672;BME280;9983;51.114;13.788;2023-05-14T22:59:20;99052.44;;;13.99;91.99
19672;BME280;9983;51.114;13.788;2023-05-14T23:04:20;99044.56;;;14.11;91.57
19672;BME280;9983;51.114;13.788;2023-05-14T23:09:21;99037.44;;;13.37;97.04
19672;BME280;9983;51.114;13.788;2023-05-14T23:14:21;99025.91;;;13.63;95.29
19672;BME280;9983;51.114;13.788;2023-05-14T23:19:21;99013.06;;;13.85;93.82
19672;BME280;9983;51.114;13.788;2023-05-14T23:24:21;99018.44;;;14.11;91.26
19672;BME280;9983;51.114;13.788;2023-05-14T23:29:22;98999.34;;;13.47;96.03
19672;BME280;9983;51.114;13.788;2023-05-14T23:34:22;98999.19;;;13.01;100.00
19672;BME280;9983;51.114;13.788;2023-05-14T23:39:22;98990.84;;;12.82;100.00
19672;BME280;9983;51.114;13.788;2023-05-14T23:44:23;98993.91;;;13.14;99.69
19672;BME280;9983;51.114;13.788;2023-05-14T23:49:23;98989.41;;;13.47;96.41
19672;BME280;9983;51.114;13.788;2023-05-14T23:54:23;98985.69;;;13.75;94.31
19672;BME280;9983;51.114;13.788;2023-05-14T23:59:23;98975.72;;;13.29;96.98
